Time;durP1;ratioP1;P1;durP2;ratioP2;P2;SDS_P1;SDS_P2;PMS_P1;PMS_P2;Temp;Humidity;BMP_temperature;BMP_pressure;BME280_temperature;BME280_humidity;BME280_pressure;Samples;Min_cycle;Max_cycle;Signal;HPM_P1;HPM_P2
2021/07/20 00:00:18;;;;;;;9.18;6.45;;;16.40;99.90;;;;;;5010624;28;20054;-77
2021/07/20 00:02:47;;;;;;;9.00;6.40;;;16.40;99.90;;;;;;5005314;28;20022;-77
2021/07/20 00:05:16;;;;;;;10.93;6.85;;;16.30;99.90;;;;;;5004039;28;20022;-77
2021/07/20 00:07:42;;;;;;;12.07;6.60;;;16.20;99.90;;;;;;5005400;28;20458;-77
2021/07/20 00:10:20;;;;;;;9.32;6.15;;;16.00;99.90;;;;;;5007691;28;20026;-77
2021/07/20 00:12:46;;;;;;;12.32;6.32;;;16.10;99.90;;;;;;5009483;28;20117;-77
2021/07/20 00:15:12;;;;;;;10.15;6.57;;;16.20;99.90;;;;;;5005518;28;20057;-77
2021/07/20 00:17:42;;;;;;;9.50;6.10;;;16.30;99.90;;;;;;5003947;28;20030;-77
2021/07/20 00:20:10;;;;;;;11.77;6.90;;;16.10;99.90;;;;;;5004615;28;20022;-78
2021/07/20 00:22:35;;;;;;;9.57;6.13;;;16.10;99.90;;;;;;5011738;28;20105;-77
2021/07/20 00:25:01;;;;;;;12.20;6.18;;;16.10;99.90;;;;;;5005549;28;20503;-77
2021/07/20 00:27:26;;;;;;;7.80;6.05;;;16.00;99.90;;;;;;5012878;28;20109;-77
2021/07/20 00:29:52;;;;;;;12.00;6.78;;;16.20;99.90;;;;;;5007441;28;20566;-78
2021/07/20 00:32:18;;;;;;;13.45;6.57;;;16.30;99.90;;;;;;5014834;28;20507;-78
2021/07/20 00:34:43;;;;;;;11.90;6.47;;;16.30;99.90;;;;;;5011215;28;20038;-77
2021/07/20 00:37:09;;;;;;;8.70;6.25;;;16.40;99.90;;;;;;5006709;28;20032;-77
2021/07/20 00:39:34;;;;;;;10.18;6.72;;;16.40;99.90;;;;;;5005720;28;20073;-77
2021/07/20 00:42:01;;;;;;;11.30;6.82;;;16.50;99.90;;;;;;5003916;28;20030;-77
2021/07/20 00:44:27;;;;;;;10.52;7.00;;;16.50;99.90;;;;;;4997035;28;20026;-77
2021/07/20 00:46:52;;;;;;;12.07;6.93;;;16.40;99.90;;;;;;5007669;28;20571;-77
2021/07/20 00:49:18;;;;;;;10.95;6.88;;;16.20;99.90;;;;;;5005279;28;20507;-77
2021/07/20 00:51:43;;;;;;;9.65;6.30;;;16.30;99.90;;;;;;5007933;28;20037;-76
2021/07/20 00:54:09;;;;;;;12.75;6.97;;;16.30;99.90;;;;;;5006656;28;20092;-77
2021/07/20 00:56:35;;;;;;;9.88;6.70;;;16.20;99.90;;;;;;5014958;28;20080;-77
2021/07/20 00:59:01;;;;;;;8.80;6.47;;;16.10;99.90;;;;;;5004059;28;20038;-77
2021/07/20 01:01:27;;;;;;;11.52;7.00;;;16.00;99.90;;;;;;5008850;28;20025;-76
2021/07/20 01:03:53;;;;;;;10.43;6.93;;;16.00;99.90;;;;;;5001215;28;20105;-76
2021/07/20 01:06:21;;;;;;;9.60;6.55;;;16.00;99.90;;;;;;5010170;28;20037;-76
2021/07/20 01:08:49;;;;;;;10.20;7.05;;;16.00;99.90;;;;;;5007314;28;20026;-76
2021/07/20 01:11:16;;;;;;;12.10;6.75;;;15.90;99.90;;;;;;5002252;28;20391;-75
2021/07/20 01:13:42;;;;;;;10.50;6.30;;;15.60;99.90;;;;;;5002354;28;20022;-75
2021/07/20 01:16:08;;;;;;;8.85;6.75;;;15.70;99.90;;;;;;4993204;28;20022;-75
2021/07/20 01:18:34;;;;;;;12.25;7.00;;;15.80;99.90;;;;;;4981770;28;20476;-75
2021/07/20 01:21:00;;;;;;;10.75;6.85;;;15.60;99.90;;;;;;4979917;28;20042;-75
2021/07/20 01:23:51;;;;;;;9.70;6.25;;;15.80;99.90;;;;;;4987313;28;20015;-76
2021/07/20 01:26:17;;;;;;;10.02;6.82;;;15.60;99.90;;;;;;4990008;28;20461;-76
2021/07/20 01:28:45;;;;;;;9.48;6.38;;;15.60;99.90;;;;;;4983700;28;20110;-76
2021/07/20 01:31:22;;;;;;;12.75;6.72;;;15.80;99.90;;;;;;4994341;28;20026;-75
2021/07/20 01:33:51;;;;;;;9.02;6.28;;;15.70;99.90;;;;;;5001508;28;20029;-75
2021/07/20 01:36:19;;;;;;;12.15;6.82;;;15.90;99.90;;;;;;4987854;28;20077;-75
2021/07/20 01:38:46;;;;;;;10.98;6.93;;;15.70;99.90;;;;;;4983682;28;20081;-75
2021/07/20 01:41:15;;;;;;;13.98;7.20;;;15.50;99.90;;;;;;4980950;28;20025;-76
2021/07/20 01:43:44;;;;;;;8.05;6.38;;;15.50;99.90;;;;;;4980955;28;20683;-76
2021/07/20 01:46:11;;;;;;;8.98;6.30;;;15.70;99.90;;;;;;4985545;28;20374;-76
2021/07/20 01:48:40;;;;;;;11.07;6.65;;;15.90;99.90;;;;;;4987507;28;20026;-78
2021/07/20 01:51:07;;;;;;;12.30;6.75;;;16.00;99.90;;;;;;4983186;28;20085;-77
2021/07/20 01:53:33;;;;;;;13.80;7.15;;;15.80;99.90;;;;;;4980528;28;20085;-77
2021/07/20 01:56:00;;;;;;;10.82;6.80;;;15.80;99.90;;;;;;4987037;28;20035;-77
2021/07/20 01:58:27;;;;;;;15.43;7.35;;;15.80;99.90;;;;;;4986946;28;20061;-77
2021/07/20 02:00:56;;;;;;;10.65;6.65;;;15.80;99.90;;;;;;4983384;28;20034;-76
2021/07/20 02:03:56;;;;;;;11.32;6.90;;;15.90;99.90;;;;;;4982055;28;20441;-76
2021/07/20 02:09:25;;;;;;;11.75;6.50;;;15.60;99.90;;;;;;5028295;28;20040;-76
2021/07/20 02:11:54;;;;;;;11.48;7.03;;;15.60;99.90;;;;;;4990755;28;20154;-76
2021/07/20 02:14:23;;;;;;;16.80;7.85;;;15.50;99.90;;;;;;4985152;28;20034;-76
2021/07/20 02:16:50;;;;;;;11.50;7.03;;;15.70;99.90;;;;;;4978956;28;20026;-76
2021/07/20 02:19:21;;;;;;;11.77;6.90;;;15.90;99.90;;;;;;4980761;28;20027;-76
2021/07/20 02:21:52;;;;;;;10.93;6.90;;;15.90;99.90;;;;;;4980920;28;20444;-77
2021/07/20 02:24:21;;;;;;;11.65;7.38;;;15.90;99.90;;;;;;4980346;28;20022;-75
2021/07/20 02:26:47;;;;;;;12.88;7.60;;;16.00;99.90;;;;;;4985284;28;20069;-76
2021/07/20 02:29:14;;;;;;;11.63;6.38;;;16.10;99.90;;;;;;4986805;28;20394;-75
2021/07/20 02:31:41;;;;;;;12.40;7.25;;;16.10;99.90;;;;;;4980015;28;20042;-75
2021/07/20 02:34:07;;;;;;;11.55;7.60;;;16.10;99.90;;;;;;4979282;28;20114;-76
2021/07/20 02:36:37;;;;;;;9.75;6.85;;;15.90;99.90;;;;;;5004504;28;20598;-76
2021/07/20 02:39:06;;;;;;;11.90;6.93;;;15.40;99.90;;;;;;4980450;28;20041;-76
2021/07/20 02:41:32;;;;;;;12.60;7.07;;;15.10;99.90;;;;;;5000778;28;20483;-76
2021/07/20 02:43:58;;;;;;;10.85;7.90;;;15.10;99.90;;;;;;4993864;28;20027;-76
2021/07/20 02:46:25;;;;;;;12.80;7.38;;;14.70;99.90;;;;;;4981944;28;20026;-76
2021/07/20 02:48:52;;;;;;;9.75;6.97;;;14.80;99.90;;;;;;4979369;28;20030;-76
2021/07/20 02:51:19;;;;;;;9.98;7.35;;;14.70;99.90;;;;;;4986398;28;20022;-78
2021/07/20 02:53:48;;;;;;;11.63;7.90;;;14.80;99.90;;;;;;4989205;28;20105;-76
2021/07/20 02:56:15;;;;;;;10.40;7.32;;;15.00;99.90;;;;;;4986416;28;20038;-75
2021/07/20 02:58:44;;;;;;;12.15;6.80;;;15.30;99.90;;;;;;4979493;28;20026;-76
2021/07/20 03:01:11;;;;;;;10.52;6.90;;;15.60;99.90;;;;;;4982198;28;20110;-77
2021/07/20 03:03:37;;;;;;;11.38;6.93;;;15.80;99.90;;;;;;4987658;28;20499;-76
2021/07/20 03:06:05;;;;;;;9.40;7.15;;;15.90;99.90;;;;;;4973523;28;20473;-76
2021/07/20 03:08:34;;;;;;;11.45;7.10;;;15.60;99.90;;;;;;4985245;28;20027;-77
2021/07/20 03:11:03;;;;;;;10.18;7.45;;;15.60;99.90;;;;;;4986328;28;20034;-77
2021/07/20 03:13:30;;;;;;;11.95;7.93;;;15.50;99.90;;;;;;5007371;28;20034;-77
2021/07/20 03:15:57;;;;;;;10.23;7.40;;;15.40;99.90;;;;;;4982152;28;20038;-77
2021/07/20 03:18:28;;;;;;;11.38;7.05;;;15.40;99.90;;;;;;4986475;28;20039;-77
2021/07/20 03:20:55;;;;;;;13.68;7.80;;;15.50;99.90;;;;;;4974350;28;20500;-77
2021/07/20 03:23:22;;;;;;;13.07;7.18;;;15.40;99.90;;;;;;4980038;28;20018;-77
2021/07/20 03:25:49;;;;;;;10.52;6.97;;;15.30;99.90;;;;;;4980116;28;20023;-77
2021/07/20 03:28:16;;;;;;;10.13;6.82;;;15.40;99.90;;;;;;4975615;28;20042;-76
2021/07/20 03:30:42;;;;;;;9.23;7.03;;;15.30;99.90;;;;;;4982777;28;20050;-76
2021/07/20 03:33:08;;;;;;;11.88;7.07;;;15.40;99.90;;;;;;4985474;28;20137;-76
2021/07/20 03:35:34;;;;;;;12.10;6.90;;;15.30;99.90;;;;;;4984811;28;20500;-77
2021/07/20 03:38:00;;;;;;;10.32;7.47;;;15.50;99.90;;;;;;4985975;28;20069;-77
2021/07/20 03:40:26;;;;;;;11.75;7.38;;;15.50;99.90;;;;;;4973876;28;20501;-77
2021/07/20 03:42:54;;;;;;;11.23;7.55;;;15.60;99.90;;;;;;4984681;28;20051;-77
2021/07/20 03:45:20;;;;;;;10.98;7.18;;;15.40;99.90;;;;;;4976925;28;20400;-77
2021/07/20 03:47:46;;;;;;;11.15;7.20;;;15.40;99.90;;;;;;5003663;28;20030;-76
2021/07/20 03:50:16;;;;;;;12.18;7.82;;;15.10;99.90;;;;;;5000457;28;20026;-77
2021/07/20 03:52:43;;;;;;;13.50;7.88;;;15.10;99.90;;;;;;4984955;28;20046;-77
2021/07/20 03:55:09;;;;;;;12.90;7.10;;;15.00;99.90;;;;;;4983634;28;20027;-76
2021/07/20 03:57:35;;;;;;;14.73;7.63;;;15.20;99.90;;;;;;4987576;28;20481;-76
2021/07/20 04:00:04;;;;;;;12.02;7.70;;;15.30;99.90;;;;;;4988073;28;20022;-76
2021/07/20 04:02:35;;;;;;;12.60;7.57;;;15.20;99.90;;;;;;4984187;28;20038;-76
2021/07/20 04:05:02;;;;;;;10.50;7.10;;;15.30;99.90;;;;;;4982370;28;20041;-76
2021/07/20 04:07:28;;;;;;;12.18;7.65;;;15.30;99.90;;;;;;4986360;28;20030;-76
2021/07/20 04:09:54;;;;;;;11.27;7.90;;;15.40;99.90;;;;;;4990681;28;20037;-76
2021/07/20 04:12:21;;;;;;;10.55;7.88;;;15.40;99.90;;;;;;4988154;28;20070;-76
2021/07/20 04:14:49;;;;;;;13.88;8.25;;;15.70;99.90;;;;;;4989941;28;20399;-76
2021/07/20 04:17:15;;;;;;;13.27;7.78;;;15.70;99.90;;;;;;4983882;28;20026;-77
2021/07/20 04:19:44;;;;;;;11.75;7.75;;;15.50;99.90;;;;;;4983973;28;20306;-77
2021/07/20 04:22:12;;;;;;;11.77;7.30;;;15.60;99.90;;;;;;4988519;28;20031;-78
2021/07/20 04:24:40;;;;;;;12.57;8.02;;;15.60;99.90;;;;;;4988811;28;20023;-76
2021/07/20 04:27:06;;;;;;;10.95;7.82;;;15.60;99.90;;;;;;4986484;28;20018;-77
2021/07/20 04:29:32;;;;;;;15.18;8.40;;;15.60;99.90;;;;;;4983852;28;20096;-77
2021/07/20 04:32:02;;;;;;;11.38;7.60;;;15.20;99.90;;;;;;4986557;28;20480;-76
2021/07/20 04:34:29;;;;;;;13.10;7.97;;;15.50;99.90;;;;;;4990768;28;20114;-77
2021/07/20 04:36:54;;;;;;;12.88;8.02;;;15.60;99.90;;;;;;4986564;28;20381;-77
2021/07/20 04:39:20;;;;;;;11.18;7.32;;;15.60;99.90;;;;;;4994506;28;20033;-77
2021/07/20 04:41:48;;;;;;;14.02;7.75;;;16.30;99.90;;;;;;5015967;28;20022;-76
2021/07/20 04:44:14;;;;;;;12.07;7.47;;;16.40;99.90;;;;;;4978750;28;20102;-75
2021/07/20 04:46:40;;;;;;;14.23;8.65;;;16.50;99.90;;;;;;4999131;28;20127;-77
2021/07/20 04:49:05;;;;;;;11.65;7.70;;;16.00;99.90;;;;;;4996420;28;20249;-76
2021/07/20 04:51:33;;;;;;;13.48;7.53;;;15.90;99.90;;;;;;4987794;28;20027;-77
2021/07/20 04:54:00;;;;;;;11.73;7.70;;;15.90;99.90;;;;;;5010452;28;20025;-78
2021/07/20 04:56:26;;;;;;;12.77;7.05;;;16.10;99.90;;;;;;4986445;28;20023;-77
2021/07/20 04:58:51;;;;;;;12.75;8.00;;;16.30;99.90;;;;;;4989280;28;20065;-76
2021/07/20 05:01:17;;;;;;;11.57;7.00;;;16.50;99.90;;;;;;4986860;28;20085;-75
2021/07/20 05:03:44;;;;;;;14.95;7.75;;;16.50;99.90;;;;;;4985845;28;20038;-75
2021/07/20 05:06:10;;;;;;;12.57;8.23;;;16.20;99.90;;;;;;5000700;28;20030;-75
2021/07/20 05:08:39;;;;;;;13.05;8.00;;;16.10;99.90;;;;;;4994154;28;20456;-75
2021/07/20 05:11:05;;;;;;;13.20;8.43;;;16.10;99.90;;;;;;4994195;28;20092;-75
2021/07/20 05:13:32;;;;;;;14.68;8.38;;;15.80;99.90;;;;;;4994097;28;20027;-75
2021/07/20 05:16:01;;;;;;;13.63;7.60;;;15.70;99.90;;;;;;4993737;28;20109;-75
2021/07/20 05:18:27;;;;;;;13.60;7.90;;;16.00;99.90;;;;;;4992912;28;20034;-75
2021/07/20 05:20:58;;;;;;;12.38;7.35;;;16.30;99.90;;;;;;4994098;28;20026;-75
2021/07/20 05:23:25;;;;;;;12.18;7.80;;;16.30;99.90;;;;;;4993981;28;20022;-75
2021/07/20 05:25:53;;;;;;;12.75;7.93;;;16.30;99.90;;;;;;4993749;28;20032;-75
2021/07/20 05:28:19;;;;;;;14.40;8.38;;;16.20;99.90;;;;;;4993685;28;20026;-75
2021/07/20 05:30:45;;;;;;;13.50;8.10;;;16.20;99.90;;;;;;4992474;28;20045;-75
2021/07/20 05:33:11;;;;;;;11.98;7.72;;;16.20;99.90;;;;;;4993807;28;20395;-75
2021/07/20 05:35:37;;;;;;;12.27;8.15;;;16.40;99.90;;;;;;4993387;28;20109;-75
2021/07/20 05:38:04;;;;;;;10.25;7.43;;;16.50;99.90;;;;;;4980619;28;20559;-75
2021/07/20 05:40:30;;;;;;;11.25;7.90;;;16.50;99.90;;;;;;4996717;28;20062;-75
2021/07/20 05:42:57;;;;;;;11.48;7.80;;;16.40;99.90;;;;;;4993532;28;20059;-75
2021/07/20 05:45:24;;;;;;;13.13;8.10;;;16.40;99.90;;;;;;4991947;28;20027;-75
2021/07/20 05:47:50;;;;;;;11.70;8.00;;;16.40;99.90;;;;;;4992006;28;20570;-75
2021/07/20 05:50:18;;;;;;;12.65;8.10;;;16.30;99.90;;;;;;4993428;28;20109;-75
2021/07/20 05:52:49;;;;;;;10.27;7.55;;;16.30;99.90;;;;;;4993442;28;20492;-75
2021/07/20 05:55:17;;;;;;;16.60;8.13;;;16.50;99.90;;;;;;4995068;28;20057;-75
2021/07/20 05:57:48;;;;;;;11.50;7.97;;;16.30;99.90;;;;;;4995323;28;20053;-75
2021/07/20 06:00:25;;;;;;;12.65;7.97;;;16.40;99.90;;;;;;4972433;28;20038;-75
2021/07/20 06:02:52;;;;;;;12.20;7.90;;;16.70;99.90;;;;;;4972638;28;20026;-75
2021/07/20 06:05:20;;;;;;;15.88;8.25;;;16.80;99.90;;;;;;4989781;28;20019;-75
2021/07/20 06:07:46;;;;;;;12.50;8.15;;;17.00;99.90;;;;;;4992501;28;20026;-75
2021/07/20 06:10:17;;;;;;;12.57;7.68;;;16.80;99.90;;;;;;4992980;28;20117;-75
2021/07/20 06:12:43;;;;;;;12.35;7.93;;;16.90;99.90;;;;;;4991799;28;20617;-75
2021/07/20 06:15:09;;;;;;;14.57;8.30;;;16.80;99.90;;;;;;4992723;28;20075;-75
2021/07/20 06:17:35;;;;;;;14.38;8.50;;;16.90;99.90;;;;;;4992925;28;20034;-75
2021/07/20 06:20:01;;;;;;;12.27;7.72;;;17.20;99.90;;;;;;4992763;28;20037;-75
2021/07/20 06:22:34;;;;;;;10.77;7.40;;;17.40;99.90;;;;;;4991499;28;20029;-75
2021/07/20 06:25:02;;;;;;;12.38;7.40;;;17.50;99.90;;;;;;4992711;28;20074;-76
2021/07/20 06:27:29;;;;;;;10.10;6.90;;;17.50;99.90;;;;;;4992663;28;20061;-75
2021/07/20 06:29:58;;;;;;;13.05;7.00;;;17.80;99.90;;;;;;4998933;28;20026;-75
2021/07/20 06:32:25;;;;;;;10.68;7.28;;;17.90;99.90;;;;;;4972022;28;20053;-75
2021/07/20 06:34:51;;;;;;;11.48;6.72;;;18.00;99.90;;;;;;4973199;28;20059;-75
2021/07/20 06:37:18;;;;;;;9.60;7.30;;;17.90;99.90;;;;;;4972996;28;20394;-75
2021/07/20 06:39:44;;;;;;;13.63;7.47;;;18.00;99.90;;;;;;4984063;28;20463;-75
2021/07/20 06:42:11;;;;;;;8.73;6.75;;;18.20;99.90;;;;;;4991247;28;20400;-75
2021/07/20 06:44:39;;;;;;;11.38;7.00;;;18.30;99.90;;;;;;4992352;28;20366;-75
2021/07/20 06:47:06;;;;;;;9.35;6.38;;;18.40;99.90;;;;;;4992212;28;20034;-75
2021/07/20 06:49:34;;;;;;;12.55;6.78;;;18.50;99.90;;;;;;4991145;28;20091;-75
2021/07/20 06:52:00;;;;;;;11.50;6.50;;;18.40;99.90;;;;;;4991113;28;20038;-75
2021/07/20 06:54:26;;;;;;;9.73;6.35;;;18.40;99.90;;;;;;4992265;28;20388;-75
2021/07/20 06:57:01;;;;;;;10.50;6.55;;;18.60;99.90;;;;;;4992173;28;20034;-75
2021/07/20 06:59:29;;;;;;;9.98;6.18;;;18.40;99.90;;;;;;4992325;28;20488;-75
2021/07/20 07:01:57;;;;;;;8.45;6.18;;;18.40;99.90;;;;;;4992195;28;20027;-75
2021/07/20 07:04:43;;;;;;;10.80;7.45;;;18.70;99.90;;;;;;4992098;28;20054;-75
2021/07/20 07:07:09;;;;;;;12.82;6.82;;;18.70;99.90;;;;;;4992243;28;20026;-75
2021/07/20 07:09:35;;;;;;;11.45;6.72;;;18.90;99.90;;;;;;4992313;28;20387;-76
2021/07/20 07:12:01;;;;;;;11.80;7.03;;;19.10;99.90;;;;;;4999029;28;20027;-75
2021/07/20 07:14:30;;;;;;;10.30;6.75;;;19.10;99.90;;;;;;4985248;28;20073;-75
2021/07/20 07:16:56;;;;;;;9.45;6.43;;;18.70;99.90;;;;;;4992035;28;20030;-76
2021/07/20 07:19:23;;;;;;;13.30;8.07;;;18.70;99.90;;;;;;4992936;28;20031;-75
2021/07/20 07:21:50;;;;;;;12.85;7.05;;;18.80;99.90;;;;;;4996231;28;20141;-76
2021/07/20 07:24:16;;;;;;;10.60;6.90;;;18.70;99.90;;;;;;4995965;28;20511;-76
2021/07/20 07:26:43;;;;;;;13.75;7.60;;;18.60;99.90;;;;;;4994670;28;20388;-75
2021/07/20 07:29:11;;;;;;;11.07;6.95;;;18.60;99.90;;;;;;4995896;28;20030;-76
2021/07/20 07:31:37;;;;;;;13.18;7.85;;;18.50;99.90;;;;;;4994676;28;20029;-75
2021/07/20 07:34:04;;;;;;;16.90;7.45;;;19.10;99.90;;;;;;4994833;28;20046;-75
2021/07/20 07:36:32;;;;;;;11.70;7.63;;;19.20;99.90;;;;;;4994390;28;20058;-75
2021/07/20 07:39:02;;;;;;;11.88;7.55;;;19.10;99.90;;;;;;4998970;28;20022;-76
2021/07/20 07:41:29;;;;;;;12.68;7.68;;;19.10;99.90;;;;;;4995765;28;20102;-75
2021/07/20 07:43:56;;;;;;;10.82;7.60;;;19.30;99.90;;;;;;4993498;28;20030;-77
2021/07/20 07:46:22;;;;;;;12.65;7.78;;;19.10;99.90;;;;;;4988738;28;20432;-76
2021/07/20 07:48:49;;;;;;;13.57;7.68;;;19.20;99.90;;;;;;4996936;28;20086;-76
2021/07/20 07:51:14;;;;;;;15.43;8.05;;;19.50;99.90;;;;;;5004962;28;20245;-76
2021/07/20 07:53:40;;;;;;;10.82;7.35;;;19.60;99.90;;;;;;5008816;28;20080;-74
2021/07/20 07:56:07;;;;;;;13.13;8.38;;;19.80;99.90;;;;;;4993942;28;20073;-74
2021/07/20 07:58:33;;;;;;;10.57;7.55;;;19.50;99.90;;;;;;4995315;28;20030;-74
2021/07/20 08:01:01;;;;;;;13.43;7.45;;;19.60;99.90;;;;;;4994124;28;20485;-74
2021/07/20 08:03:31;;;;;;;11.35;7.53;;;19.70;99.90;;;;;;4995218;28;20023;-74
2021/07/20 08:05:59;;;;;;;12.98;7.93;;;19.70;99.90;;;;;;4995231;28;20030;-74
2021/07/20 08:08:25;;;;;;;11.43;8.07;;;19.60;99.90;;;;;;4993876;28;20046;-74
2021/07/20 08:10:53;;;;;;;13.05;8.57;;;20.00;99.90;;;;;;4993760;28;20034;-74
2021/07/20 08:13:20;;;;;;;14.93;8.23;;;20.00;99.90;;;;;;4994022;28;20113;-74
2021/07/20 08:15:48;;;;;;;13.50;7.97;;;19.70;99.90;;;;;;4993730;28;20033;-76
2021/07/20 08:18:13;;;;;;;16.02;8.55;;;20.00;99.90;;;;;;4985511;28;20480;-76
2021/07/20 08:20:42;;;;;;;13.48;8.90;;;19.80;99.90;;;;;;5003444;28;20034;-76
2021/07/20 08:23:07;;;;;;;14.20;8.38;;;20.10;99.90;;;;;;4998408;28;20050;-76
2021/07/20 08:25:53;;;;;;;13.48;8.48;;;20.00;99.90;;;;;;4993320;28;20054;-76
2021/07/20 08:28:33;;;;;;;13.55;8.63;;;19.90;99.90;;;;;;4994475;28;20022;-76
2021/07/20 08:31:02;;;;;;;12.23;9.02;;;20.60;99.90;;;;;;4994355;28;20037;-76
2021/07/20 08:33:32;;;;;;;12.65;8.57;;;20.60;99.90;;;;;;4994860;28;20027;-76
2021/07/20 08:36:03;;;;;;;12.05;7.88;;;20.60;99.90;;;;;;4993354;28;20114;-76
2021/07/20 08:38:31;;;;;;;11.63;8.18;;;20.70;99.90;;;;;;4993612;28;20049;-76
2021/07/20 08:41:03;;;;;;;12.77;7.90;;;20.80;99.90;;;;;;4994535;28;20022;-75
2021/07/20 08:43:57;;;;;;;13.45;8.52;;;20.40;99.90;;;;;;4994752;28;20018;-76
2021/07/20 08:46:38;;;;;;;13.27;8.52;;;20.10;99.90;;;;;;4986109;28;20109;-76
2021/07/20 08:49:41;;;;;;;13.73;8.98;;;20.40;99.90;;;;;;4993286;28;20026;-76
2021/07/20 08:52:17;;;;;;;15.40;8.55;;;20.40;99.90;;;;;;5003786;28;20023;-76
2021/07/20 08:54:54;;;;;;;16.73;8.48;;;20.40;99.90;;;;;;4974826;28;20038;-77
2021/07/20 08:57:29;;;;;;;14.82;8.23;;;20.50;99.90;;;;;;4993600;28;20030;-76
2021/07/20 09:00:01;;;;;;;11.77;8.57;;;20.80;99.90;;;;;;4980426;28;20030;-76
2021/07/20 09:02:44;;;;;;;14.48;8.82;;;20.80;99.90;;;;;;5006388;28;20033;-77
2021/07/20 09:05:16;;;;;;;10.98;8.40;;;20.40;99.90;;;;;;4997059;28;20026;-76
2021/07/20 09:08:08;;;;;;;12.95;8.95;;;20.70;99.90;;;;;;5003413;28;20023;-75
2021/07/20 09:10:50;;;;;;;14.18;8.98;;;20.40;99.90;;;;;;4975156;28;20073;-76
2021/07/20 09:13:19;;;;;;;12.10;8.10;;;20.30;99.90;;;;;;4974578;28;20055;-76
2021/07/20 09:15:53;;;;;;;9.93;8.45;;;20.20;99.90;;;;;;4983210;28;20514;-76
2021/07/20 09:18:28;;;;;;;13.43;8.93;;;20.40;99.90;;;;;;4992672;28;20507;-76
2021/07/20 09:21:00;;;;;;;11.95;8.05;;;20.60;99.90;;;;;;4993971;28;20507;-77
2021/07/20 09:23:35;;;;;;;13.57;9.38;;;21.00;99.90;;;;;;4992235;28;20030;-77
2021/07/20 09:26:07;;;;;;;14.90;10.20;;;21.20;99.90;;;;;;4993536;28;20023;-76
2021/07/20 09:28:45;;;;;;;13.43;9.40;;;21.20;99.90;;;;;;4992423;28;20022;-76
2021/07/20 09:31:46;;;;;;;13.90;9.77;;;21.30;99.90;;;;;;4993772;28;20077;-75
2021/07/20 09:34:20;;;;;;;13.05;8.82;;;21.30;99.90;;;;;;4992711;28;20049;-76
2021/07/20 09:37:06;;;;;;;18.17;10.13;;;20.90;99.90;;;;;;4993622;28;20026;-76
2021/07/20 09:39:55;;;;;;;13.30;10.23;;;20.40;99.90;;;;;;4993440;28;20026;-75
2021/07/20 09:42:42;;;;;;;13.75;8.82;;;20.50;99.90;;;;;;4993083;28;20045;-76
2021/07/20 09:45:08;;;;;;;;;;;20.50;99.90;;;;;;5005804;28;20522;-76
2021/07/20 09:47:55;;;;;;;13.93;9.52;;;20.90;99.90;;;;;;4991105;28;19992;-74
2021/07/20 09:50:23;;;;;;;15.02;10.85;;;21.40;99.90;;;;;;4992130;28;20400;-74
2021/07/20 09:53:27;;;;;;;15.10;10.88;;;21.60;99.90;;;;;;4992049;28;20038;-74
2021/07/20 09:55:58;;;;;;;14.15;9.95;;;21.60;99.90;;;;;;4993262;28;20027;-74
2021/07/20 09:58:32;;;;;;;12.77;9.77;;;22.20;99.90;;;;;;4993191;28;20033;-74
2021/07/20 10:01:14;;;;;;;17.10;10.75;;;22.10;99.90;;;;;;4993400;28;20271;-74
2021/07/20 10:03:47;;;;;;;16.85;10.77;;;22.60;99.90;;;;;;4991988;28;20022;-74
2021/07/20 10:06:40;;;;;;;14.68;10.30;;;23.00;99.90;;;;;;4993130;28;20101;-74
2021/07/20 10:09:12;;;;;;;17.02;11.32;;;23.40;99.90;;;;;;4993197;28;20480;-74
2021/07/20 10:11:49;;;;;;;14.23;10.68;;;23.20;99.90;;;;;;4992853;28;20129;-74
2021/07/20 10:14:39;;;;;;;17.40;10.90;;;23.10;99.90;;;;;;4981294;28;20065;-74
2021/07/20 10:17:23;;;;;;;16.38;10.32;;;22.90;99.90;;;;;;4979619;28;20030;-74
2021/07/20 10:19:59;;;;;;;12.38;9.10;;;22.00;99.90;;;;;;4992804;28;20428;-74
2021/07/20 10:22:38;;;;;;;17.50;10.60;;;21.50;99.90;;;;;;4992748;28;20088;-74
2021/07/20 10:25:12;;;;;;;14.70;10.55;;;21.00;99.90;;;;;;4993045;28;20486;-74
2021/07/20 10:28:12;;;;;;;17.23;10.43;;;21.10;99.90;;;;;;4993219;28;20033;-74
2021/07/20 10:30:39;;;;;;;16.17;10.32;;;20.90;99.90;;;;;;4993092;28;20031;-74
2021/07/20 10:33:30;;;;;;;13.73;9.93;;;20.60;99.90;;;;;;4992715;28;20030;-74
2021/07/20 10:35:57;;;;;;;13.88;9.57;;;20.60;99.90;;;;;;4991352;28;20034;-74
2021/07/20 10:38:33;;;;;;;13.98;9.65;;;20.70;99.90;;;;;;4992402;28;20527;-77
2021/07/20 10:41:02;;;;;;;14.00;9.60;;;21.60;99.90;;;;;;4976858;28;20481;-77
2021/07/20 10:43:32;;;;;;;15.68;10.10;;;21.90;99.90;;;;;;5004571;28;20014;-77
2021/07/20 10:46:02;;;;;;;11.90;9.98;;;21.80;99.90;;;;;;4975496;28;20023;-77
2021/07/20 10:48:30;;;;;;;13.18;9.02;;;22.30;99.90;;;;;;5005085;28;20060;-77
2021/07/20 10:51:19;;;;;;;12.10;8.98;;;22.40;99.90;;;;;;4973569;28;20029;-76
2021/07/20 10:54:03;;;;;;;11.65;9.13;;;22.20;99.90;;;;;;4971334;28;20027;-75
2021/07/20 10:56:41;;;;;;;12.23;8.52;;;22.30;99.90;;;;;;4983199;28;20022;-75
2021/07/20 10:59:10;;;;;;;13.55;8.98;;;22.50;99.90;;;;;;4992407;28;20030;-75
2021/07/20 11:01:51;;;;;;;12.98;9.32;;;22.80;99.90;;;;;;4992317;28;20029;-75
2021/07/20 11:04:46;;;;;;;11.27;8.88;;;22.60;99.90;;;;;;4992604;28;20030;-76
2021/07/20 11:07:24;;;;;;;13.63;9.30;;;22.30;99.90;;;;;;4991129;28;20022;-75
2021/07/20 11:09:52;;;;;;;13.40;9.82;;;22.10;99.90;;;;;;4990863;28;20030;-75
2021/07/20 11:12:19;;;;;;;13.63;9.20;;;22.50;99.90;;;;;;4992303;28;20076;-76
2021/07/20 11:14:48;;;;;;;12.68;9.18;;;22.40;99.90;;;;;;4990666;28;20041;-75
2021/07/20 11:17:18;;;;;;;13.10;9.82;;;22.20;99.90;;;;;;4992188;28;20049;-75
2021/07/20 11:19:46;;;;;;;15.07;9.57;;;22.20;99.90;;;;;;4990986;28;20432;-75
2021/07/20 11:22:13;;;;;;;12.38;9.02;;;23.00;99.90;;;;;;5000294;28;20029;-75
2021/07/20 11:24:38;;;;;;;14.63;9.90;;;23.90;99.90;;;;;;4978345;28;20381;-75
2021/07/20 11:27:05;;;;;;;13.95;9.00;;;23.50;99.90;;;;;;4972731;28;20023;-75
2021/07/20 11:29:31;;;;;;;13.38;9.60;;;22.80;99.90;;;;;;4972564;28;20062;-75
2021/07/20 11:32:01;;;;;;;12.65;8.45;;;22.30;99.90;;;;;;4990998;28;20511;-75
2021/07/20 11:34:31;;;;;;;14.00;8.40;;;22.80;99.90;;;;;;4979368;28;20094;-76
2021/07/20 11:37:04;;;;;;;13.55;8.68;;;22.80;99.90;;;;;;4972678;28;20038;-77
2021/07/20 11:39:34;;;;;;;13.05;8.80;;;22.90;99.90;;;;;;5001538;28;20428;-77
2021/07/20 11:42:17;;;;;;;12.00;8.68;;;23.90;99.90;;;;;;4991236;28;20027;-77
2021/07/20 11:44:56;;;;;;;12.45;8.88;;;23.60;99.90;;;;;;4991874;28;20388;-77
2021/07/20 11:47:31;;;;;;;15.85;9.98;;;24.10;99.90;;;;;;4991641;28;20039;-76
2021/07/20 11:50:18;;;;;;;11.47;9.03;;;23.30;99.90;;;;;;4990776;28;20053;-76
2021/07/20 11:52:46;;;;;;;13.50;8.98;;;23.30;99.90;;;;;;4984599;28;20142;-76
2021/07/20 11:55:29;;;;;;;13.13;9.38;;;24.10;99.90;;;;;;4999976;28;20029;-77
2021/07/20 11:58:31;;;;;;;12.63;8.90;;;23.90;99.90;;;;;;4991838;28;20037;-77
2021/07/20 12:01:21;;;;;;;12.75;9.52;;;23.60;99.90;;;;;;5000113;28;20033;-76
2021/07/20 12:04:11;;;;;;;11.73;8.82;;;23.80;99.90;;;;;;4975674;28;20019;-75
2021/07/20 12:06:54;;;;;;;11.82;9.10;;;24.30;99.90;;;;;;4988942;28;20014;-76
2021/07/20 12:09:55;;;;;;;12.98;8.82;;;24.20;99.90;;;;;;4995507;28;20022;-77
2021/07/20 12:12:47;;;;;;;12.43;8.63;;;23.40;99.90;;;;;;4990735;28;20035;-77
2021/07/20 12:15:14;;;;;;;12.02;8.57;;;23.20;99.90;;;;;;4994232;28;20021;-76
2021/07/20 12:17:41;;;;;;;10.32;8.50;;;23.00;99.90;;;;;;4993862;28;20033;-76
2021/07/20 12:20:13;;;;;;;10.32;7.93;;;22.40;99.90;;;;;;5001197;28;20023;-77
2021/07/20 12:22:40;;;;;;;11.25;8.43;;;22.20;99.90;;;;;;4974591;28;20113;-77
2021/07/20 12:25:10;;;;;;;11.65;8.70;;;22.30;99.90;;;;;;5001690;28;20036;-77
2021/07/20 12:27:39;;;;;;;13.73;8.60;;;22.30;99.90;;;;;;5000508;28;20045;-76
2021/07/20 12:30:10;;;;;;;12.48;8.68;;;22.40;99.90;;;;;;5001799;28;20104;-75
2021/07/20 12:32:37;;;;;;;13.35;8.75;;;23.60;99.90;;;;;;4985151;28;20266;-75
2021/07/20 12:35:05;;;;;;;11.57;8.73;;;24.30;99.90;;;;;;4993554;28;20030;-77
2021/07/20 12:37:30;;;;;;;13.18;9.05;;;24.90;99.90;;;;;;4993403;28;20034;-77
2021/07/20 12:39:59;;;;;;;11.63;8.23;;;24.80;99.90;;;;;;4998116;28;20101;-77
2021/07/20 12:42:42;;;;;;;11.85;8.30;;;24.90;99.90;;;;;;5004360;28;20073;-76
2021/07/20 12:45:13;;;;;;;13.35;8.75;;;25.40;99.90;;;;;;4998753;28;20518;-76
2021/07/20 12:47:47;;;;;;;12.07;9.43;;;25.20;99.90;;;;;;4990446;28;20038;-77
2021/07/20 12:50:17;;;;;;;10.32;8.52;;;25.50;99.90;;;;;;4994538;28;20109;-76
2021/07/20 12:52:46;;;;;;;10.73;8.60;;;25.80;99.90;;;;;;4986194;28;20069;-77
2021/07/20 12:55:13;;;;;;;11.32;8.35;;;24.30;99.90;;;;;;5001191;28;20057;-77
2021/07/20 12:57:43;;;;;;;13.80;8.40;;;23.20;99.90;;;;;;4991725;28;20029;-76